sensor_id;sensor_type;location;lat;lon;timestamp;pressure;altitude;pressure_sealevel;temperature;humidity
50057;BME280;36875;49.468;11.200;2023-05-21T00:01:48;97719.75;;;18.68;52.20
50057;BME280;36875;49.468;11.200;2023-05-21T00:04:14;97694.44;;;18.54;52.19
50057;BME280;36875;49.468;11.200;2023-05-21T00:06:40;97712.38;;;18.69;51.94
50057;BME280;36875;49.468;11.200;2023-05-21T00:09:06;97722.47;;;18.68;52.06
50057;BME280;36875;49.468;11.200;2023-05-21T00:11:32;97714.31;;;18.68;51.80
50057;BME280;36875;49.468;11.200;2023-05-21T00:13:57;97708.84;;;18.68;51.90
50057;BME280;36875;49.468;11.200;2023-05-21T00:16:22;97712.38;;;18.69;52.06
50057;BME280;36875;49.468;11.200;2023-05-21T00:18:48;97706.94;;;18.69;51.87
50057;BME280;36875;49.468;11.200;2023-05-21T00:21:13;97703.41;;;18.68;51.80
50057;BME280;36875;49.468;11.200;2023-05-21T00:23:42;97700.69;;;18.68;51.82
50057;BME280;36875;49.468;11.200;2023-05-21T00:26:07;97703.41;;;18.68;51.96
50057;BME280;36875;49.468;11.200;2023-05-21T00:28:33;97697.94;;;18.68;51.74
50057;BME280;36875;49.468;11.200;2023-05-21T00:30:58;97708.06;;;18.68;51.95
50057;BME280;36875;49.468;11.200;2023-05-21T00:33:23;97704.53;;;18.67;52.11
50057;BME280;36875;49.468;11.200;2023-05-21T00:35:50;97697.16;;;18.68;52.02
50057;BME280;36875;49.468;11.200;2023-05-21T00:38:15;97690.06;;;18.67;51.80
50057;BME280;36875;49.468;11.200;2023-05-21T00:40:43;97699.88;;;18.68;51.80
50057;BME280;36875;49.468;11.200;2023-05-21T00:43:08;97696.03;;;18.69;51.73
50057;BME280;36875;49.468;11.200;2023-05-21T00:45:34;97695.53;;;18.67;52.06
50057;BME280;36875;49.468;11.200;2023-05-21T00:48:00;97701.81;;;18.67;51.88
50057;BME280;36875;49.468;11.200;2023-05-21T00:50:26;97694.44;;;18.68;51.97
50057;BME280;36875;49.468;11.200;2023-05-21T00:52:52;97693.63;;;18.67;51.88
50057;BME280;36875;49.468;11.200;2023-05-21T00:55:17;97690.91;;;18.67;51.76
50057;BME280;36875;49.468;11.200;2023-05-21T00:57:43;97688.97;;;18.68;51.97
50057;BME280;36875;49.468;11.200;2023-05-21T01:00:10;97686.25;;;18.68;51.74
50057;BME280;36875;49.468;11.200;2023-05-21T01:02:40;97683.53;;;18.68;52.00
50057;BME280;36875;49.468;11.200;2023-05-21T01:05:06;97684.63;;;18.67;51.88
50057;BME280;36875;49.468;11.200;2023-05-21T01:07:31;97679.19;;;18.67;51.55
50057;BME280;36875;49.468;11.200;2023-05-21T01:09:59;97679.19;;;18.67;51.65
50057;BME280;36875;49.468;11.200;2023-05-21T01:12:24;97682.72;;;18.67;51.83
50057;BME280;36875;49.468;11.200;2023-05-21T01:14:51;97681.91;;;18.67;51.77
50057;BME280;36875;49.468;11.200;2023-05-21T01:17:16;97682.72;;;18.67;51.87
50057;BME280;36875;49.468;11.200;2023-05-21T01:19:42;97682.72;;;18.67;51.82
50057;BME280;36875;49.468;11.200;2023-05-21T01:22:08;97685.47;;;18.67;51.70
50057;BME280;36875;49.468;11.200;2023-05-21T01:24:36;97673.72;;;18.67;51.83
50057;BME280;36875;49.468;11.200;2023-05-21T01:27:02;97677.28;;;18.67;51.59
50057;BME280;36875;49.468;11.200;2023-05-21T01:29:29;97674.56;;;18.67;51.90
50057;BME280;36875;49.468;11.200;2023-05-21T01:31:55;97678.38;;;18.66;51.58
50057;BME280;36875;49.468;11.200;2023-05-21T01:34:25;97676.44;;;18.67;51.55
50057;BME280;36875;49.468;11.200;2023-05-21T01:36:54;97682.72;;;18.67;51.52
50057;BME280;36875;49.468;11.200;2023-05-21T01:39:22;97679.19;;;18.67;51.50
50057;BME280;36875;49.468;11.200;2023-05-21T01:41:49;97678.38;;;18.66;51.71
50057;BME280;36875;49.468;11.200;2023-05-21T01:44:16;97672.94;;;18.66;51.50
50057;BME280;36875;49.468;11.200;2023-05-21T01:46:42;97681.09;;;18.66;51.68
50057;BME280;36875;49.468;11.200;2023-05-21T01:49:08;97678.38;;;18.66;51.50
50057;BME280;36875;49.468;11.200;2023-05-21T01:51:34;97672.94;;;18.66;51.62
50057;BME280;36875;49.468;11.200;2023-05-21T01:54:00;97674.03;;;18.65;51.33
50057;BME280;36875;49.468;11.200;2023-05-21T01:56:25;97670.19;;;18.66;51.70
50057;BME280;36875;49.468;11.200;2023-05-21T01:58:54;97667.47;;;18.66;51.40
50057;BME280;36875;49.468;11.200;2023-05-21T02:01:20;97665.84;;;18.65;51.63
50057;BME280;36875;49.468;11.200;2023-05-21T02:03:46;97665.84;;;18.65;51.68
50057;BME280;36875;49.468;11.200;2023-05-21T02:06:11;97663.94;;;18.66;51.37
50057;BME280;36875;49.468;11.200;2023-05-21T02:08:37;97663.13;;;18.65;51.43
50057;BME280;36875;49.468;11.200;2023-05-21T02:11:02;97670.19;;;18.66;51.35
50057;BME280;36875;49.468;11.200;2023-05-21T02:13:27;97663.94;;;18.66;51.66
50057;BME280;36875;49.468;11.200;2023-05-21T02:15:54;97661.22;;;18.66;51.32
50057;BME280;36875;49.468;11.200;2023-05-21T02:18:20;97663.13;;;18.65;51.52
50057;BME280;36875;49.468;11.200;2023-05-21T02:20:45;97663.13;;;18.65;51.54
50057;BME280;36875;49.468;11.200;2023-05-21T02:23:11;97663.13;;;18.65;51.69
50057;BME280;36875;49.468;11.200;2023-05-21T02:25:36;97660.41;;;18.65;51.45
50057;BME280;36875;49.468;11.200;2023-05-21T02:28:01;97665.84;;;18.65;51.58
50057;BME280;36875;49.468;11.200;2023-05-21T02:30:27;97660.41;;;18.65;51.32
50057;BME280;36875;49.468;11.200;2023-05-21T02:32:53;97664.75;;;18.66;51.41
50057;BME280;36875;49.468;11.200;2023-05-21T02:35:19;97657.66;;;18.65;51.26
50057;BME280;36875;49.468;11.200;2023-05-21T02:37:44;97658.50;;;18.66;51.57
50057;BME280;36875;49.468;11.200;2023-05-21T02:40:10;97655.78;;;18.66;51.27
50057;BME280;36875;49.468;11.200;2023-05-21T02:42:36;97652.22;;;18.65;51.35
50057;BME280;36875;49.468;11.200;2023-05-21T02:45:03;97653.06;;;18.66;51.33
50057;BME280;36875;49.468;11.200;2023-05-21T02:47:29;97652.22;;;18.65;51.53
50057;BME280;36875;49.468;11.200;2023-05-21T02:49:57;97651.44;;;18.65;51.38
50057;BME280;36875;49.468;11.200;2023-05-21T02:52:22;97651.44;;;18.65;51.16
50057;BME280;36875;49.468;11.200;2023-05-21T02:54:48;97651.44;;;18.65;51.19
50057;BME280;36875;49.468;11.200;2023-05-21T02:57:13;97652.22;;;18.65;51.53
50057;BME280;36875;49.468;11.200;2023-05-21T02:59:38;97651.44;;;18.65;51.22
50057;BME280;36875;49.468;11.200;2023-05-21T03:02:04;97652.22;;;18.65;51.27
50057;BME280;36875;49.468;11.200;2023-05-21T03:04:29;97651.44;;;18.65;51.31
50057;BME280;36875;49.468;11.200;2023-05-21T03:06:56;97648.69;;;18.65;51.19
50057;BME280;36875;49.468;11.200;2023-05-21T03:09:22;97645.97;;;18.65;51.10
50057;BME280;36875;49.468;11.200;2023-05-21T03:11:48;97653.34;;;18.64;51.33
50057;BME280;36875;49.468;11.200;2023-05-21T03:14:13;97661.53;;;18.64;51.04
50057;BME280;36875;49.468;11.200;2023-05-21T03:16:38;97662.31;;;18.65;51.22
50057;BME280;36875;49.468;11.200;2023-05-21T03:19:05;97662.31;;;18.65;51.24
50057;BME280;36875;49.468;11.200;2023-05-21T03:21:31;97656.09;;;18.64;51.21
50057;BME280;36875;49.468;11.200;2023-05-21T03:23:59;97656.09;;;18.64;51.20
50057;BME280;36875;49.468;11.200;2023-05-21T03:26:24;97665.84;;;18.65;51.30
50057;BME280;36875;49.468;11.200;2023-05-21T03:28:51;97658.81;;;18.64;51.44
50057;BME280;36875;49.468;11.200;2023-05-21T03:31:16;97658.81;;;18.64;51.38
50057;BME280;36875;49.468;11.200;2023-05-21T03:33:41;97662.31;;;18.65;51.00
50057;BME280;36875;49.468;11.200;2023-05-21T03:36:07;97658.81;;;18.64;51.38
50057;BME280;36875;49.468;11.200;2023-05-21T03:38:32;97659.59;;;18.65;51.08
50057;BME280;36875;49.468;11.200;2023-05-21T03:40:59;97654.47;;;18.63;51.38
50057;BME280;36875;49.468;11.200;2023-05-21T03:43:24;97658.81;;;18.64;51.02
50057;BME280;36875;49.468;11.200;2023-05-21T03:45:49;97652.56;;;18.64;51.39
50057;BME280;36875;49.468;11.200;2023-05-21T03:48:15;97655.28;;;18.64;51.39
50057;BME280;36875;49.468;11.200;2023-05-21T03:50:40;97656.09;;;18.64;51.23
50057;BME280;36875;49.468;11.200;2023-05-21T03:53:06;97656.09;;;18.64;51.16
50057;BME280;36875;49.468;11.200;2023-05-21T03:55:31;97647.09;;;18.64;51.36
50057;BME280;36875;49.468;11.200;2023-05-21T03:57:58;97659.91;;;18.63;51.15
50057;BME280;36875;49.468;11.200;2023-05-21T04:00:23;97660.72;;;18.64;51.04
50057;BME280;36875;49.468;11.200;2023-05-21T04:02:48;97664.56;;;18.63;51.03
50057;BME280;36875;49.468;11.200;2023-05-21T04:05:13;97663.47;;;18.64;51.27
50057;BME280;36875;49.468;11.200;2023-05-21T04:07:39;97665.34;;;18.63;51.05
50057;BME280;36875;49.468;11.200;2023-05-21T04:10:05;97661.53;;;18.64;51.15
50057;BME280;36875;49.468;11.200;2023-05-21T04:12:30;97660.72;;;18.64;51.01
50057;BME280;36875;49.468;11.200;2023-05-21T04:14:57;97662.63;;;18.63;51.01
50057;BME280;36875;49.468;11.200;2023-05-21T04:17:22;97661.84;;;18.63;51.01
50057;BME280;36875;49.468;11.200;2023-05-21T04:19:50;97668.09;;;18.63;51.23
50057;BME280;36875;49.468;11.200;2023-05-21T04:22:16;97664.56;;;18.63;51.32
50057;BME280;36875;49.468;11.200;2023-05-21T04:24:41;97663.75;;;18.62;51.23
50057;BME280;36875;49.468;11.200;2023-05-21T04:27:07;97665.34;;;18.63;51.01
50057;BME280;36875;49.468;11.200;2023-05-21T04:29:33;97676.25;;;18.63;51.01
50057;BME280;36875;49.468;11.200;2023-05-21T04:32:00;97666.19;;;18.64;51.10
50057;BME280;36875;49.468;11.200;2023-05-21T04:34:25;97676.25;;;18.63;51.23
50057;BME280;36875;49.468;11.200;2023-05-21T04:36:51;97675.47;;;18.63;51.03
50057;BME280;36875;49.468;11.200;2023-05-21T04:39:16;97677.09;;;18.64;50.97
50057;BME280;36875;49.468;11.200;2023-05-21T04:41:41;97676.25;;;18.63;50.98
50057;BME280;36875;49.468;11.200;2023-05-21T04:44:07;97672.72;;;18.63;51.32
50057;BME280;36875;49.468;11.200;2023-05-21T04:46:32;97674.66;;;18.62;51.17
50057;BME280;36875;49.468;11.200;2023-05-21T04:49:00;97679.81;;;18.64;51.15
50057;BME280;36875;49.468;11.200;2023-05-21T04:51:27;97678.97;;;18.63;51.34
50057;BME280;36875;49.468;11.200;2023-05-21T04:53:52;97676.25;;;18.63;50.98
50057;BME280;36875;49.468;11.200;2023-05-21T04:56:18;97690.72;;;18.64;51.01
50057;BME280;36875;49.468;11.200;2023-05-21T04:58:43;97687.16;;;18.63;51.32
50057;BME280;36875;49.468;11.200;2023-05-21T05:01:09;97676.25;;;18.63;51.22
50057;BME280;36875;49.468;11.200;2023-05-21T05:03:34;97684.44;;;18.63;51.36
50057;BME280;36875;49.468;11.200;2023-05-21T05:06:01;97680.13;;;18.62;50.98
50057;BME280;36875;49.468;11.200;2023-05-21T05:08:28;97689.88;;;18.63;51.38
50057;BME280;36875;49.468;11.200;2023-05-21T05:10:53;97689.09;;;18.63;51.17
50057;BME280;36875;49.468;11.200;2023-05-21T05:13:19;97692.63;;;18.63;51.05
50057;BME280;36875;49.468;11.200;2023-05-21T05:15:44;97688.28;;;18.62;51.41
50057;BME280;36875;49.468;11.200;2023-05-21T05:18:10;97683.63;;;18.63;51.19
50057;BME280;36875;49.468;11.200;2023-05-21T05:20:35;97693.44;;;18.64;51.05
50057;BME280;36875;49.468;11.200;2023-05-21T05:23:02;97694.25;;;18.64;51.25
50057;BME280;36875;49.468;11.200;2023-05-21T05:25:27;97689.88;;;18.63;51.27
50057;BME280;36875;49.468;11.200;2023-05-21T05:27:53;97693.75;;;18.62;51.03
50057;BME280;36875;49.468;11.200;2023-05-21T05:30:18;97690.72;;;18.64;51.15
50057;BME280;36875;49.468;11.200;2023-05-21T05:32:43;97700.78;;;18.63;51.11
50057;BME280;36875;49.468;11.200;2023-05-21T05:35:09;97699.69;;;18.64;51.16
50057;BME280;36875;49.468;11.200;2023-05-21T05:37:34;97692.63;;;18.63;51.33
50057;BME280;36875;49.468;11.200;2023-05-21T05:40:01;97696.16;;;18.64;51.54
50057;BME280;36875;49.468;11.200;2023-05-21T05:42:26;97689.88;;;18.63;51.51
50057;BME280;36875;49.468;11.200;2023-05-21T05:44:52;97688.00;;;18.64;51.39
50057;BME280;36875;49.468;11.200;2023-05-21T05:47:17;97688.00;;;18.64;51.41
50057;BME280;36875;49.468;11.200;2023-05-21T05:49:42;97686.06;;;18.64;51.41
50057;BME280;36875;49.468;11.200;2023-05-21T05:52:08;97689.59;;;18.65;51.82
50057;BME280;36875;49.468;11.200;2023-05-21T05:54:33;97691.50;;;18.64;51.47
50057;BME280;36875;49.468;11.200;2023-05-21T05:57:00;97689.59;;;18.65;51.63
50057;BME280;36875;49.468;11.200;2023-05-21T05:59:25;97659.66;;;18.51;51.72
50057;BME280;36875;49.468;11.200;2023-05-21T06:01:50;97684.13;;;18.65;51.81
50057;BME280;36875;49.468;11.200;2023-05-21T06:04:16;97690.38;;;18.65;51.84
50057;BME280;36875;49.468;11.200;2023-05-21T06:06:41;97683.84;;;18.66;51.82
50057;BME280;36875;49.468;11.200;2023-05-21T06:09:06;97684.94;;;18.65;51.78
50057;BME280;36875;49.468;11.200;2023-05-21T06:11:31;97694.72;;;18.66;52.28
50057;BME280;36875;49.468;11.200;2023-05-21T06:13:58;97687.34;;;18.67;52.03
50057;BME280;36875;49.468;11.200;2023-05-21T06:16:25;97686.56;;;18.66;52.25
50057;BME280;36875;49.468;11.200;2023-05-21T06:18:51;97681.91;;;18.67;52.35
50057;BME280;36875;49.468;11.200;2023-05-21T06:21:16;97681.91;;;18.67;52.35
50057;BME280;36875;49.468;11.200;2023-05-21T06:23:41;97681.91;;;18.67;52.14
50057;BME280;36875;49.468;11.200;2023-05-21T06:26:07;97681.91;;;18.67;52.08
50057;BME280;36875;49.468;11.200;2023-05-21T06:28:32;97672.94;;;18.66;52.03
50057;BME280;36875;49.468;11.200;2023-05-21T06:30:59;97678.38;;;18.66;52.00
50057;BME280;36875;49.468;11.200;2023-05-21T06:33:24;97671.81;;;18.67;52.43
50057;BME280;36875;49.468;11.200;2023-05-21T06:35:51;97680.00;;;18.67;52.20
50057;BME280;36875;49.468;11.200;2023-05-21T06:38:16;97672.63;;;18.68;52.32
50057;BME280;36875;49.468;11.200;2023-05-21T06:40:42;97676.16;;;18.68;52.44
50057;BME280;36875;49.468;11.200;2023-05-21T06:43:08;97669.59;;;18.69;52.42
50057;BME280;36875;49.468;11.200;2023-05-21T06:45:33;97672.31;;;18.69;52.61
50057;BME280;36875;49.468;11.200;2023-05-21T06:48:00;97677.47;;;18.71;52.63
50057;BME280;36875;49.468;11.200;2023-05-21T06:50:26;97672.31;;;18.69;52.48
50057;BME280;36875;49.468;11.200;2023-05-21T06:52:51;97676.63;;;18.71;52.29
50057;BME280;36875;49.468;11.200;2023-05-21T06:55:16;97676.63;;;18.71;52.51
50057;BME280;36875;49.468;11.200;2023-05-21T06:57:42;97675.84;;;18.70;52.50
50057;BME280;36875;49.468;11.200;2023-05-21T07:00:08;97676.63;;;18.71;52.32
50057;BME280;36875;49.468;11.200;2023-05-21T07:02:33;97678.25;;;18.72;52.43
50057;BME280;36875;49.468;11.200;2023-05-21T07:05:00;97683.72;;;18.72;52.11
50057;BME280;36875;49.468;11.200;2023-05-21T07:07:25;97688.38;;;18.71;52.34
50057;BME280;36875;49.468;11.200;2023-05-21T07:09:51;97694.63;;;18.72;52.31
50057;BME280;36875;49.468;11.200;2023-05-21T07:12:16;97689.97;;;18.72;52.31
50057;BME280;36875;49.468;11.200;2023-05-21T07:14:42;97691.91;;;18.72;52.36
50057;BME280;36875;49.468;11.200;2023-05-21T07:17:07;97685.31;;;18.73;52.30
50057;BME280;36875;49.468;11.200;2023-05-21T07:19:32;97685.31;;;18.73;52.37
50057;BME280;36875;49.468;11.200;2023-05-21T07:21:59;97685.31;;;18.73;52.34
50057;BME280;36875;49.468;11.200;2023-05-21T07:24:24;97684.22;;;18.74;52.24
50057;BME280;36875;49.468;11.200;2023-05-21T07:26:51;97686.13;;;18.73;52.44
50057;BME280;36875;49.468;11.200;2023-05-21T07:29:16;97687.75;;;18.74;52.41
50057;BME280;36875;49.468;11.200;2023-05-21T07:31:42;97685.81;;;18.75;52.93
50057;BME280;36875;49.468;11.200;2023-05-21T07:34:07;97682.28;;;18.74;52.68
50057;BME280;36875;49.468;11.200;2023-05-21T07:36:32;97678.66;;;18.79;52.70
50057;BME280;36875;49.468;11.200;2023-05-21T07:38:59;97680.88;;;18.77;52.70
50057;BME280;36875;49.468;11.200;2023-05-21T07:41:25;97685.50;;;18.76;52.88
50057;BME280;36875;49.468;11.200;2023-05-21T07:43:50;97687.94;;;18.78;53.08
50057;BME280;36875;49.468;11.200;2023-05-21T07:46:15;97682.47;;;18.78;53.12
50057;BME280;36875;49.468;11.200;2023-05-21T07:48:40;97680.53;;;18.78;53.07
50057;BME280;36875;49.468;11.200;2023-05-21T07:51:07;97683.28;;;18.78;53.26
50057;BME280;36875;49.468;11.200;2023-05-21T07:53:33;97691.16;;;18.80;53.32
50057;BME280;36875;49.468;11.200;2023-05-21T07:55:59;97678.66;;;18.79;53.08
50057;BME280;36875;49.468;11.200;2023-05-21T07:58:25;97678.34;;;18.80;53.56
50057;BME280;36875;49.468;11.200;2023-05-21T08:00:50;97684.63;;;18.81;53.57
50057;BME280;36875;49.468;11.200;2023-05-21T08:03:17;97683.50;;;18.82;53.54
50057;BME280;36875;49.468;11.200;2023-05-21T08:05:43;97686.22;;;18.82;53.77
50057;BME280;36875;49.468;11.200;2023-05-21T08:08:12;97682.69;;;18.81;53.89
50057;BME280;36875;49.468;11.200;2023-05-21T08:10:37;97691.66;;;18.82;53.57
50057;BME280;36875;49.468;11.200;2023-05-21T08:13:04;97684.63;;;18.81;53.67
50057;BME280;36875;49.468;11.200;2023-05-21T08:15:29;97694.41;;;18.82;53.80
50057;BME280;36875;49.468;11.200;2023-05-21T08:17:55;97682.41;;;18.83;53.76
50057;BME280;36875;49.468;11.200;2023-05-21T08:20:20;97684.31;;;18.82;53.82
50057;BME280;36875;49.468;11.200;2023-05-21T08:22:45;97682.41;;;18.83;53.86
50057;BME280;36875;49.468;11.200;2023-05-21T08:25:12;97676.94;;;18.83;53.79
50057;BME280;36875;49.468;11.200;2023-05-21T08:27:37;97680.47;;;18.83;54.04
50057;BME280;36875;49.468;11.200;2023-05-21T08:30:05;97675.00;;;18.83;54.20
50057;BME280;36875;49.468;11.200;2023-05-21T08:32:30;97673.13;;;18.84;54.11
50057;BME280;36875;49.468;11.200;2023-05-21T08:34:56;97681.28;;;18.84;54.18
50057;BME280;36875;49.468;11.200;2023-05-21T08:37:22;97682.88;;;18.85;54.13
50057;BME280;36875;49.468;11.200;2023-05-21T08:39:47;97676.34;;;18.86;53.98
50057;BME280;36875;49.468;11.200;2023-05-21T08:42:14;97669.25;;;18.85;54.00
50057;BME280;36875;49.468;11.200;2023-05-21T08:44:43;97671.97;;;18.85;53.83
50057;BME280;36875;49.468;11.200;2023-05-21T08:47:15;97670.06;;;18.85;54.20
50057;BME280;36875;49.468;11.200;2023-05-21T08:49:42;97659.97;;;18.86;54.23
50057;BME280;36875;49.468;11.200;2023-05-21T08:52:09;97680.97;;;18.85;53.77
50057;BME280;36875;49.468;11.200;2023-05-21T08:54:35;97668.94;;;18.86;53.97
50057;BME280;36875;49.468;11.200;2023-05-21T08:57:01;97677.94;;;18.87;54.07
50057;BME280;36875;49.468;11.200;2023-05-21T08:59:27;97662.69;;;18.86;54.05
50057;BME280;36875;49.468;11.200;2023-05-21T09:01:52;97668.94;;;18.86;53.60
50057;BME280;36875;49.468;11.200;2023-05-21T09:04:20;97672.47;;;18.87;54.02
50057;BME280;36875;49.468;11.200;2023-05-21T09:06:45;97664.28;;;18.87;54.11
50057;BME280;36875;49.468;11.200;2023-05-21T09:09:12;97665.91;;;18.88;53.76
50057;BME280;36875;49.468;11.200;2023-05-21T09:11:39;97664.28;;;18.87;54.02
50057;BME280;36875;49.468;11.200;2023-05-21T09:14:09;97663.19;;;18.88;54.08
50057;BME280;36875;49.468;11.200;2023-05-21T09:16:35;97665.91;;;18.88;54.21
50057;BME280;36875;49.468;11.200;2023-05-21T09:19:00;97665.91;;;18.88;54.11
50057;BME280;36875;49.468;11.200;2023-05-21T09:21:28;97662.06;;;18.89;54.23
50057;BME280;36875;49.468;11.200;2023-05-21T09:23:54;97669.44;;;18.88;54.34
50057;BME280;36875;49.468;11.200;2023-05-21T09:26:20;97669.13;;;18.90;54.31
50057;BME280;36875;49.468;11.200;2023-05-21T09:28:46;97666.41;;;18.90;53.99
50057;BME280;36875;49.468;11.200;2023-05-21T09:31:11;97664.47;;;18.91;54.15
50057;BME280;36875;49.468;11.200;2023-05-21T09:33:38;97666.41;;;18.90;54.12
50057;BME280;36875;49.468;11.200;2023-05-21T09:36:09;97668.34;;;18.90;54.12
50057;BME280;36875;49.468;11.200;2023-05-21T09:38:36;97669.94;;;18.91;54.18
50057;BME280;36875;49.468;11.200;2023-05-21T09:41:03;97669.94;;;18.91;54.35
50057;BME280;36875;49.468;11.200;2023-05-21T09:43:30;97670.72;;;18.91;54.25
50057;BME280;36875;49.468;11.200;2023-05-21T09:45:56;97664.47;;;18.91;54.15
50057;BME280;36875;49.468;11.200;2023-05-21T09:48:31;97666.91;;;18.92;54.12
50057;BME280;36875;49.468;11.200;2023-05-21T09:51:05;97666.91;;;18.92;54.25
50057;BME280;36875;49.468;11.200;2023-05-21T09:53:31;97663.06;;;18.93;54.20
50057;BME280;36875;49.468;11.200;2023-05-21T09:55:58;97657.63;;;18.93;54.39
50057;BME280;36875;49.468;11.200;2023-05-21T09:58:23;97655.69;;;18.94;54.09
50057;BME280;36875;49.468;11.200;2023-05-21T10:00:49;97661.94;;;18.94;53.99
50057;BME280;36875;49.468;11.200;2023-05-21T10:03:16;97660.34;;;18.93;54.20
50057;BME280;36875;49.468;11.200;2023-05-21T10:05:42;97661.94;;;18.94;54.45
50057;BME280;36875;49.468;11.200;2023-05-21T10:08:07;97664.66;;;18.94;54.13
50057;BME280;36875;49.468;11.200;2023-05-21T10:10:33;97660.84;;;18.95;54.18
50057;BME280;36875;49.468;11.200;2023-05-21T10:13:03;97656.19;;;18.96;54.38
50057;BME280;36875;49.468;11.200;2023-05-21T10:15:29;97654.56;;;18.95;54.24
50057;BME280;36875;49.468;11.200;2023-05-21T10:17:55;97653.75;;;18.94;54.47
50057;BME280;36875;49.468;11.200;2023-05-21T10:20:21;97656.19;;;18.96;54.35
50057;BME280;36875;49.468;11.200;2023-05-21T10:22:47;97648.81;;;18.96;54.68
50057;BME280;36875;49.468;11.200;2023-05-21T10:25:12;97649.28;;;18.98;55.47
50057;BME280;36875;49.468;11.200;2023-05-21T10:27:37;97648.97;;;19.00;55.99
50057;BME280;36875;49.468;11.200;2023-05-21T10:30:05;97645.94;;;19.01;56.86
50057;BME280;36875;49.468;11.200;2023-05-21T10:32:31;97641.28;;;19.02;56.93
50057;BME280;36875;49.468;11.200;2023-05-21T10:34:56;97635.53;;;19.03;57.42
50057;BME280;36875;49.468;11.200;2023-05-21T10:37:22;97637.97;;;19.05;57.59
50057;BME280;36875;49.468;11.200;2023-05-21T10:39:47;97637.16;;;19.04;57.73
50057;BME280;36875;49.468;11.200;2023-05-21T10:42:17;97632.19;;;19.06;58.01
50057;BME280;36875;49.468;11.200;2023-05-21T10:44:49;97629.34;;;19.12;58.08
50057;BME280;36875;49.468;11.200;2023-05-21T10:50:10;97626.63;;;19.12;56.02
50057;BME280;36875;49.468;11.200;2023-05-21T10:52:49;97624.19;;;19.10;56.55
50057;BME280;36875;49.468;11.200;2023-05-21T10:55:18;97631.66;;;19.27;56.19
50057;BME280;36875;49.468;11.200;2023-05-21T10:58:05;97625.34;;;19.18;55.04
50057;BME280;36875;49.468;11.200;2023-05-21T11:00:35;97625.47;;;19.13;54.79
50057;BME280;36875;49.468;11.200;2023-05-21T11:03:01;97616.75;;;19.33;52.58
50057;BME280;36875;49.468;11.200;2023-05-21T11:05:49;97607.66;;;19.38;51.75
50057;BME280;36875;49.468;11.200;2023-05-21T11:08:20;97614.53;;;19.35;50.85
50057;BME280;36875;49.468;11.200;2023-05-21T11:10:46;97618.97;;;19.54;49.62
50057;BME280;36875;49.468;11.200;2023-05-21T11:13:15;97613.28;;;19.41;49.49
50057;BME280;36875;49.468;11.200;2023-05-21T11:21:13;97610.41;;;19.47;49.86
50057;BME280;36875;49.468;11.200;2023-05-21T11:23:47;97598.66;;;19.37;50.65
50057;BME280;36875;49.468;11.200;2023-05-21T11:26:14;97599.28;;;19.34;50.23
50057;BME280;36875;49.468;11.200;2023-05-21T11:28:39;97611.09;;;19.52;50.05
50057;BME280;36875;49.468;11.200;2023-05-21T11:31:23;97607.34;;;19.39;49.77
50057;BME280;36875;49.468;11.200;2023-05-21T11:34:07;97602.63;;;19.31;49.94
50057;BME280;36875;49.468;11.200;2023-05-21T11:36:34;97601.66;;;19.27;50.29
50057;BME280;36875;49.468;11.200;2023-05-21T11:39:07;97599.53;;;19.24;50.58
50057;BME280;36875;49.468;11.200;2023-05-21T11:41:48;97605.00;;;19.24;51.03
50057;BME280;36875;49.468;11.200;2023-05-21T11:44:13;97611.59;;;19.23;51.18
50057;BME280;36875;49.468;11.200;2023-05-21T11:46:39;97603.41;;;19.23;51.54
50057;BME280;36875;49.468;11.200;2023-05-21T11:49:04;97617.03;;;19.23;51.62
50057;BME280;36875;49.468;11.200;2023-05-21T11:51:30;97601.00;;;19.21;51.71
50057;BME280;36875;49.468;11.200;2023-05-21T11:53:57;97618.94;;;19.22;51.93
50057;BME280;36875;49.468;11.200;2023-05-21T11:56:23;97606.63;;;19.25;52.01
50057;BME280;36875;49.468;11.200;2023-05-21T11:58:49;97615.28;;;19.27;53.03
50057;BME280;36875;49.468;11.200;2023-05-21T12:01:23;97614.50;;;19.26;52.69
50057;BME280;36875;49.468;11.200;2023-05-21T12:03:48;97606.63;;;19.25;52.84
50057;BME280;36875;49.468;11.200;2023-05-21T12:06:14;97608.56;;;19.24;52.73
50057;BME280;36875;49.468;11.200;2023-05-21T12:08:41;97601.16;;;19.25;53.03
50057;BME280;36875;49.468;11.200;2023-05-21T12:11:08;97595.41;;;19.26;52.84
50057;BME280;36875;49.468;11.200;2023-05-21T12:13:33;97596.06;;;19.32;52.60
50057;BME280;36875;49.468;11.200;2023-05-21T12:15:59;97590.13;;;19.30;52.68
50057;BME280;36875;49.468;11.200;2023-05-21T12:18:24;97587.41;;;19.30;52.50
50057;BME280;36875;49.468;11.200;2023-05-21T12:20:50;97586.25;;;19.31;52.35
50057;BME280;36875;49.468;11.200;2023-05-21T12:23:17;97589.00;;;19.31;52.57
50057;BME280;36875;49.468;11.200;2023-05-21T12:25:43;97591.72;;;19.31;52.44
50057;BME280;36875;49.468;11.200;2023-05-21T12:28:10;97590.91;;;19.31;52.44
50057;BME280;36875;49.468;11.200;2023-05-21T12:30:35;97586.91;;;19.28;52.52
50057;BME280;36875;49.468;11.200;2023-05-21T12:33:00;97581.44;;;19.28;52.40
50057;BME280;36875;49.468;11.200;2023-05-21T12:35:27;97596.19;;;19.27;52.75
50057;BME280;36875;49.468;11.200;2023-05-21T12:37:52;97588.00;;;19.27;52.39
50057;BME280;36875;49.468;11.200;2023-05-21T12:40:17;97579.84;;;19.27;52.87
50057;BME280;36875;49.468;11.200;2023-05-21T12:42:43;97591.53;;;19.27;52.60
50057;BME280;36875;49.468;11.200;2023-05-21T12:45:10;97589.63;;;19.28;52.78
50057;BME280;36875;49.468;11.200;2023-05-21T12:47:35;97596.19;;;19.27;52.59
50057;BME280;36875;49.468;11.200;2023-05-21T12:50:01;97597.81;;;19.28;52.71
50057;BME280;36875;49.468;11.200;2023-05-21T12:52:27;97597.81;;;19.28;52.57
50057;BME280;36875;49.468;11.200;2023-05-21T12:54:53;97593.47;;;19.27;52.79